You are here

Stations

Station Name Date Time Temperature Relative Humidity Precipitation Wind Speed Wind Direction Create Custom Report Daily Report Hourly Report
Aberdeen VTcr 2020-06-07 0:15 75.1 97.10 0.00 0.01 ESE
Bee Lake 2020-06-07 0:15 74.6 97.70 0.04 0.14 NE
Brooksville 2020-06-07 0:15 74.5 99.10 0.00 1.65 NE
Brooksville2 VTso 2020-06-07 0:15 73.4 99.90 0.00
Brown Loam Exp Stn VT 2020-06-07 13:30 88.4 67.89 0.00 2.49 SSW
Brown Loam Exp. Stn. 2020-06-07 0:15 74.5 99.60 0.53 0.80 NW
Clarksdale VTso 2020-06-07 0:15 73.1 100.00 0.30
Cleveland 2020-06-07 0:15 73.7 97.30 0.03 0.74 WNW
Coastal Res & Ext Cnt 2020-06-07 0:15 76.6 94.60 0.04 1.57 WSW
COOP Stoneville 2020-06-07 8:00 77.0 94 0.03
Cooper_Farm 2020-06-07 0:15 74.8 99.70 0.00 0.41 S
Home Cypress Farm 2020-06-07 0:15 73.7 98.20 0.00 1.32 WSW
Longwood VTso 2020-06-07 0:15 72.5 99.10 0.16
Lyon 2020-06-07 0:15 73.6 98.90 0.47 1.44 NW
Macon VTcr 2020-06-07 0:15 74.6 94.90 0.01 0.00 WSW
Mantee VT 2020-06-07 0:15 75.9 98.30 0.00 0.03 WNW
Money 2020-06-07 0:15 72.1 100.00 0.84 0.51 SSE
Mound Bayou 2020-06-07 0:15 73.3 98.30 0.00 0.76 WSW
MSU North Farm Starkv 2020-06-07 0:15 74.9 94.70 0.00 0.31 ESE
Natchez 2020-06-07 0:15 73.4 100.00 0.01 0.00 N
Olive Branch VTcr 2020-06-07 0:15 72.0 99.80 0.04 0.00 S
Olive Branch2 VTso 2020-06-07 0:15 74.0 97.90 0.00
Onward VT 2020-06-07 0:15 73.6 99.30 0.02
Pontotoc AWS COOP 2020-06-07 0:14
Pontotoc Exp Stn 2020-06-07 0:15 75.9 97.50 0.00 0.95 NNW
Prairie 2020-06-07 0:15 74.4 100.00 0.17 0.00 SSE
Sidon 2020-06-07 0:15 72.5 100.00 0.30 0.03 SSE
Stoneville AWS 2020-06-07 0:15 73.8 97.90 0.00 0.20 SSE
Stoneville F10 2020-06-07 0:15 74.3 0.42 0.00 0.72 S
Stoneville W 2020-06-07 0:15 74.1 99.30 0.00 0.91 SSE
Stoneville_F8 2020-06-07 0:15 73.9 97.90 0.00 0.37 SSE
Stoneville_SW 2020-06-07 0:15 74.5 96.20 0.00 0.41 SSE
Thighman 2020-06-07 0:15 73.2 99.10 0.01 0.31 NNE
Tippo VT 2020-06-07 0:15 72.8 98.50 0.00
Tribbett 2020-06-07 0:15 73.8 97.80 0.00 0.11 NNE
Tunica 2020-06-07 0:15 74.6 97.60 0.19 1.51 SW
Verona 2020-06-07 0:15 77.2 96.10 0.00 0.11 SW
Verona VTso 2020-06-07 0:15 75.4 100.00 0.00
Vicksburg 2020-06-07 0:15 73.7 100.00 1.20 2.53 SSE
Money VT 2020-26-05 1:15 75.4 82.00 0.00 8.92 ESE
Back to Top